sensor_id;sensor_type;location;lat;lon;timestamp;pressure;altitude;pressure_sealevel;temperature;humidity
11712;BME280;5912;51.034;6.984;2024-03-07T00:02:22;56744.97;;;-142.13;73.15
11712;BME280;5912;51.034;6.984;2024-03-07T00:04:48;56700.91;;;-142.13;72.89
11712;BME280;5912;51.034;6.984;2024-03-07T00:07:14;56708.91;;;-142.13;73.13
11712;BME280;5912;51.034;6.984;2024-03-07T00:09:39;56704.91;;;-142.13;73.59
11712;BME280;5912;51.034;6.984;2024-03-07T00:12:05;56692.88;;;-142.13;73.50
11712;BME280;5912;51.034;6.984;2024-03-07T00:14:32;56696.88;;;-142.13;73.31
11712;BME280;5912;51.034;6.984;2024-03-07T00:16:59;56716.91;;;-142.13;73.06
11712;BME280;5912;51.034;6.984;2024-03-07T00:19:25;56716.91;;;-142.13;73.59
11712;BME280;5912;51.034;6.984;2024-03-07T00:21:55;56702.91;;;-142.13;73.38
11712;BME280;5912;51.034;6.984;2024-03-07T00:24:21;56702.91;;;-142.13;73.12
11712;BME280;5912;51.034;6.984;2024-03-07T00:26:46;56722.94;;;-142.13;73.07
11712;BME280;5912;51.034;6.984;2024-03-07T00:29:15;56738.97;;;-142.13;72.99
11712;BME280;5912;51.034;6.984;2024-03-07T00:31:42;56716.91;;;-142.13;73.69
11712;BME280;5912;51.034;6.984;2024-03-07T00:34:08;56708.91;;;-142.13;73.55
11712;BME280;5912;51.034;6.984;2024-03-07T00:36:35;56696.88;;;-142.13;73.63
11712;BME280;5912;51.034;6.984;2024-03-07T00:39:00;56712.91;;;-142.13;73.96
11712;BME280;5912;51.034;6.984;2024-03-07T00:41:26;56720.94;;;-142.13;73.36
11712;BME280;5912;51.034;6.984;2024-03-07T00:43:51;56726.94;;;-142.13;73.62
11712;BME280;5912;51.034;6.984;2024-03-07T00:46:17;56724.94;;;-142.13;73.75
11712;BME280;5912;51.034;6.984;2024-03-07T00:48:42;56734.94;;;-142.13;74.04
11712;BME280;5912;51.034;6.984;2024-03-07T00:51:07;56710.91;;;-142.13;74.61
11712;BME280;5912;51.034;6.984;2024-03-07T00:53:34;56724.94;;;-142.13;75.01
11712;BME280;5912;51.034;6.984;2024-03-07T00:56:01;56730.94;;;-142.13;74.62
11712;BME280;5912;51.034;6.984;2024-03-07T00:58:27;56712.91;;;-142.13;74.91
11712;BME280;5912;51.034;6.984;2024-03-07T01:00:53;56716.91;;;-142.13;73.66
11712;BME280;5912;51.034;6.984;2024-03-07T01:03:19;56716.91;;;-142.13;73.83
11712;BME280;5912;51.034;6.984;2024-03-07T01:05:45;56702.91;;;-142.13;74.67
11712;BME280;5912;51.034;6.984;2024-03-07T01:08:10;56712.91;;;-142.13;73.95
11712;BME280;5912;51.034;6.984;2024-03-07T01:10:36;56744.97;;;-142.13;74.76
11712;BME280;5912;51.034;6.984;2024-03-07T01:13:01;56726.94;;;-142.13;74.20
11712;BME280;5912;51.034;6.984;2024-03-07T01:15:32;56724.94;;;-142.13;74.06
11712;BME280;5912;51.034;6.984;2024-03-07T01:17:58;56710.91;;;-142.13;73.84
11712;BME280;5912;51.034;6.984;2024-03-07T01:20:23;56726.94;;;-142.13;74.53
11712;BME280;5912;51.034;6.984;2024-03-07T01:22:51;56724.94;;;-142.13;73.97
11712;BME280;5912;51.034;6.984;2024-03-07T01:25:17;56734.94;;;-142.13;74.77
11712;BME280;5912;51.034;6.984;2024-03-07T01:27:42;56744.97;;;-142.13;74.60
11712;BME280;5912;51.034;6.984;2024-03-07T01:30:08;56706.91;;;-142.13;74.52
11712;BME280;5912;51.034;6.984;2024-03-07T01:32:34;56704.91;;;-142.13;73.92
11712;BME280;5912;51.034;6.984;2024-03-07T01:34:59;56742.97;;;-142.13;74.28
11712;BME280;5912;51.034;6.984;2024-03-07T01:37:26;56716.91;;;-142.13;74.26
11712;BME280;5912;51.034;6.984;2024-03-07T01:39:51;56730.94;;;-142.13;74.46
11712;BME280;5912;51.034;6.984;2024-03-07T01:42:17;56759.00;;;-142.13;74.64
11712;BME280;5912;51.034;6.984;2024-03-07T01:44:42;56704.91;;;-142.13;74.59
11712;BME280;5912;51.034;6.984;2024-03-07T01:47:09;56724.94;;;-142.13;75.08
11712;BME280;5912;51.034;6.984;2024-03-07T01:49:36;56724.94;;;-142.13;74.25
11712;BME280;5912;51.034;6.984;2024-03-07T01:52:03;56720.94;;;-142.13;74.91
11712;BME280;5912;51.034;6.984;2024-03-07T01:54:30;56706.91;;;-142.13;74.94
11712;BME280;5912;51.034;6.984;2024-03-07T01:56:57;56738.97;;;-142.13;74.64
11712;BME280;5912;51.034;6.984;2024-03-07T01:59:23;56757.00;;;-142.13;74.14
11712;BME280;5912;51.034;6.984;2024-03-07T02:01:50;56724.94;;;-142.13;74.57
11712;BME280;5912;51.034;6.984;2024-03-07T02:04:15;56748.97;;;-142.13;74.75
11712;BME280;5912;51.034;6.984;2024-03-07T02:06:41;56718.91;;;-142.13;74.64
11712;BME280;5912;51.034;6.984;2024-03-07T02:09:07;56722.94;;;-142.13;74.20
11712;BME280;5912;51.034;6.984;2024-03-07T02:11:32;56724.94;;;-142.13;73.79
11712;BME280;5912;51.034;6.984;2024-03-07T02:13:58;56744.97;;;-142.13;73.96
11712;BME280;5912;51.034;6.984;2024-03-07T02:16:24;56752.97;;;-142.13;74.07
11712;BME280;5912;51.034;6.984;2024-03-07T02:18:50;56746.97;;;-142.13;74.51
11712;BME280;5912;51.034;6.984;2024-03-07T02:21:16;56742.97;;;-142.13;74.04
11712;BME280;5912;51.034;6.984;2024-03-07T02:23:41;56742.97;;;-142.13;74.08
11712;BME280;5912;51.034;6.984;2024-03-07T02:26:07;56718.91;;;-142.13;74.59
11712;BME280;5912;51.034;6.984;2024-03-07T02:28:36;56716.91;;;-142.13;74.56
11712;BME280;5912;51.034;6.984;2024-03-07T02:31:02;56744.97;;;-142.13;75.16
11712;BME280;5912;51.034;6.984;2024-03-07T02:33:27;56754.97;;;-142.13;75.08
11712;BME280;5912;51.034;6.984;2024-03-07T02:35:52;56712.91;;;-142.13;74.83
11712;BME280;5912;51.034;6.984;2024-03-07T02:38:18;56738.97;;;-142.13;74.83
11712;BME280;5912;51.034;6.984;2024-03-07T02:40:44;56712.91;;;-142.13;73.91
11712;BME280;5912;51.034;6.984;2024-03-07T02:43:11;56722.94;;;-142.13;74.29
11712;BME280;5912;51.034;6.984;2024-03-07T02:45:37;56985.38;;;-142.13;73.91
11712;BME280;5912;51.034;6.984;2024-03-07T02:48:03;56738.97;;;-142.13;74.31
11712;BME280;5912;51.034;6.984;2024-03-07T02:50:29;56744.97;;;-142.13;74.42
11712;BME280;5912;51.034;6.984;2024-03-07T02:52:55;56744.97;;;-142.13;74.42
11712;BME280;5912;51.034;6.984;2024-03-07T02:55:20;56700.91;;;-142.13;74.11
11712;BME280;5912;51.034;6.984;2024-03-07T02:57:46;56750.97;;;-142.13;74.11
11712;BME280;5912;51.034;6.984;2024-03-07T03:00:11;56734.94;;;-142.13;74.06
11712;BME280;5912;51.034;6.984;2024-03-07T03:02:52;56744.97;;;-142.13;73.92
11712;BME280;5912;51.034;6.984;2024-03-07T03:05:18;56742.97;;;-142.13;74.55
11712;BME280;5912;51.034;6.984;2024-03-07T03:07:44;56750.97;;;-142.13;74.44
11712;BME280;5912;51.034;6.984;2024-03-07T03:10:09;56757.00;;;-142.13;74.00
11712;BME280;5912;51.034;6.984;2024-03-07T03:12:38;56720.94;;;-142.13;73.57
11712;BME280;5912;51.034;6.984;2024-03-07T03:15:06;56752.97;;;-142.13;73.99
11712;BME280;5912;51.034;6.984;2024-03-07T03:17:32;56738.97;;;-142.13;74.38
11712;BME280;5912;51.034;6.984;2024-03-07T03:19:57;56742.97;;;-142.13;74.58
11712;BME280;5912;51.034;6.984;2024-03-07T03:22:22;56726.94;;;-142.13;74.20
11712;BME280;5912;51.034;6.984;2024-03-07T03:24:48;56726.94;;;-142.13;74.90
11712;BME280;5912;51.034;6.984;2024-03-07T03:27:13;56718.91;;;-142.13;74.09
11712;BME280;5912;51.034;6.984;2024-03-07T03:29:39;56736.94;;;-142.13;73.79
11712;BME280;5912;51.034;6.984;2024-03-07T03:32:05;56748.97;;;-142.13;73.79
11712;BME280;5912;51.034;6.984;2024-03-07T03:34:32;56728.94;;;-142.13;73.81
11712;BME280;5912;51.034;6.984;2024-03-07T03:36:59;56704.91;;;-142.13;74.29
11712;BME280;5912;51.034;6.984;2024-03-07T03:39:24;56750.97;;;-142.13;74.09
11712;BME280;5912;51.034;6.984;2024-03-07T03:41:52;56746.97;;;-142.13;74.03
11712;BME280;5912;51.034;6.984;2024-03-07T03:44:17;56726.94;;;-142.13;74.05
11712;BME280;5912;51.034;6.984;2024-03-07T03:46:43;56744.97;;;-142.13;72.99
11712;BME280;5912;51.034;6.984;2024-03-07T03:49:08;56748.97;;;-142.13;73.78
11712;BME280;5912;51.034;6.984;2024-03-07T03:51:34;56722.94;;;-142.13;73.32
11712;BME280;5912;51.034;6.984;2024-03-07T03:53:59;56708.91;;;-142.13;73.17
11712;BME280;5912;51.034;6.984;2024-03-07T03:56:24;56728.94;;;-142.13;73.38
11712;BME280;5912;51.034;6.984;2024-03-07T03:58:50;56716.91;;;-142.13;73.01
11712;BME280;5912;51.034;6.984;2024-03-07T04:01:15;56720.94;;;-142.13;72.18
11712;BME280;5912;51.034;6.984;2024-03-07T04:03:41;56748.97;;;-142.13;72.54
11712;BME280;5912;51.034;6.984;2024-03-07T04:06:07;56712.91;;;-142.13;72.23
11712;BME280;5912;51.034;6.984;2024-03-07T04:08:32;56702.91;;;-142.13;72.50
11712;BME280;5912;51.034;6.984;2024-03-07T04:10:58;56718.91;;;-142.13;72.34
11712;BME280;5912;51.034;6.984;2024-03-07T04:13:23;56724.94;;;-142.13;72.34
11712;BME280;5912;51.034;6.984;2024-03-07T04:15:48;56738.97;;;-142.13;71.79
11712;BME280;5912;51.034;6.984;2024-03-07T04:18:14;56738.97;;;-142.13;72.48
11712;BME280;5912;51.034;6.984;2024-03-07T04:20:39;56720.94;;;-142.13;71.87
11712;BME280;5912;51.034;6.984;2024-03-07T04:23:05;56724.94;;;-142.13;72.00
11712;BME280;5912;51.034;6.984;2024-03-07T04:25:31;56710.91;;;-142.13;72.66
11712;BME280;5912;51.034;6.984;2024-03-07T04:27:57;56738.97;;;-142.13;72.36
11712;BME280;5912;51.034;6.984;2024-03-07T04:30:23;56736.94;;;-142.13;72.83
11712;BME280;5912;51.034;6.984;2024-03-07T04:32:49;56734.94;;;-142.13;72.24
11712;BME280;5912;51.034;6.984;2024-03-07T04:35:14;56724.94;;;-142.13;72.24
11712;BME280;5912;51.034;6.984;2024-03-07T04:37:39;56728.94;;;-142.13;72.90
11712;BME280;5912;51.034;6.984;2024-03-07T04:40:07;56726.94;;;-142.13;72.58
11712;BME280;5912;51.034;6.984;2024-03-07T04:42:49;56696.88;;;-142.13;72.94
11712;BME280;5912;51.034;6.984;2024-03-07T04:45:15;56769.00;;;-142.13;73.04
11712;BME280;5912;51.034;6.984;2024-03-07T04:47:42;56736.94;;;-142.13;72.68
11712;BME280;5912;51.034;6.984;2024-03-07T04:50:09;56750.97;;;-142.13;72.50
11712;BME280;5912;51.034;6.984;2024-03-07T04:52:39;56728.94;;;-142.13;72.47
11712;BME280;5912;51.034;6.984;2024-03-07T04:55:08;56769.00;;;-142.13;72.69
11712;BME280;5912;51.034;6.984;2024-03-07T04:57:36;56750.97;;;-142.13;73.29
11712;BME280;5912;51.034;6.984;2024-03-07T05:00:01;56736.94;;;-142.13;72.76
11712;BME280;5912;51.034;6.984;2024-03-07T05:02:32;56732.94;;;-142.13;72.64
11712;BME280;5912;51.034;6.984;2024-03-07T05:04:59;56744.97;;;-142.13;72.71
11712;BME280;5912;51.034;6.984;2024-03-07T05:07:24;56763.00;;;-142.13;72.78
11712;BME280;5912;51.034;6.984;2024-03-07T05:09:50;56738.97;;;-142.13;73.06
11712;BME280;5912;51.034;6.984;2024-03-07T05:12:15;56759.00;;;-142.13;72.85
11712;BME280;5912;51.034;6.984;2024-03-07T05:14:41;56761.00;;;-142.13;73.02
11712;BME280;5912;51.034;6.984;2024-03-07T05:17:06;56744.97;;;-142.13;72.47
11712;BME280;5912;51.034;6.984;2024-03-07T05:19:34;56748.97;;;-142.13;72.73
11712;BME280;5912;51.034;6.984;2024-03-07T05:22:00;56736.94;;;-142.13;72.75
11712;BME280;5912;51.034;6.984;2024-03-07T05:24:25;56744.97;;;-142.13;72.76
11712;BME280;5912;51.034;6.984;2024-03-07T05:26:51;56746.97;;;-142.13;72.94
11712;BME280;5912;51.034;6.984;2024-03-07T05:29:18;56750.97;;;-142.13;72.57
11712;BME280;5912;51.034;6.984;2024-03-07T05:31:43;56740.97;;;-142.13;72.80
11712;BME280;5912;51.034;6.984;2024-03-07T05:34:13;56773.00;;;-142.13;72.97
11712;BME280;5912;51.034;6.984;2024-03-07T05:36:39;56754.97;;;-142.13;72.66
11712;BME280;5912;51.034;6.984;2024-03-07T05:39:12;56769.00;;;-142.13;73.00
11712;BME280;5912;51.034;6.984;2024-03-07T05:41:38;56765.00;;;-142.13;73.15
11712;BME280;5912;51.034;6.984;2024-03-07T05:44:04;56752.97;;;-142.13;73.59
11712;BME280;5912;51.034;6.984;2024-03-07T05:46:34;56746.97;;;-142.13;73.65
11712;BME280;5912;51.034;6.984;2024-03-07T05:49:00;56734.94;;;-142.13;74.15
11712;BME280;5912;51.034;6.984;2024-03-07T05:51:25;56769.00;;;-142.13;73.89
11712;BME280;5912;51.034;6.984;2024-03-07T05:53:51;56740.97;;;-142.13;74.34
11712;BME280;5912;51.034;6.984;2024-03-07T05:56:17;56724.94;;;-142.13;74.20
11712;BME280;5912;51.034;6.984;2024-03-07T05:58:42;56740.97;;;-142.13;73.98
11712;BME280;5912;51.034;6.984;2024-03-07T06:01:08;56738.97;;;-142.13;74.22
11712;BME280;5912;51.034;6.984;2024-03-07T06:03:34;56765.00;;;-142.13;73.98
11712;BME280;5912;51.034;6.984;2024-03-07T06:09:21;56716.91;;;-142.13;73.87
11712;BME280;5912;51.034;6.984;2024-03-07T06:11:47;56722.94;;;-142.13;73.80
11712;BME280;5912;51.034;6.984;2024-03-07T06:14:13;56726.94;;;-142.13;73.97
11712;BME280;5912;51.034;6.984;2024-03-07T06:16:39;56740.97;;;-142.13;74.13
11712;BME280;5912;51.034;6.984;2024-03-07T06:19:07;56763.00;;;-142.13;74.23
11712;BME280;5912;51.034;6.984;2024-03-07T06:21:33;56744.97;;;-142.13;73.68
11712;BME280;5912;51.034;6.984;2024-03-07T06:23:59;56754.97;;;-142.13;73.67
11712;BME280;5912;51.034;6.984;2024-03-07T06:29:10;56754.97;;;-142.13;73.90
11712;BME280;5912;51.034;6.984;2024-03-07T06:31:39;56809.06;;;-142.13;73.14
11712;BME280;5912;51.034;6.984;2024-03-07T06:34:06;56736.94;;;-142.13;72.82
11712;BME280;5912;51.034;6.984;2024-03-07T06:36:32;56748.97;;;-142.13;72.54
11712;BME280;5912;51.034;6.984;2024-03-07T06:38:58;56700.91;;;-142.13;72.48
11712;BME280;5912;51.034;6.984;2024-03-07T06:41:23;56706.91;;;-142.13;72.33
11712;BME280;5912;51.034;6.984;2024-03-07T06:43:50;56742.97;;;-142.13;72.52
11712;BME280;5912;51.034;6.984;2024-03-07T06:46:15;56700.91;;;-142.13;72.46
11712;BME280;5912;51.034;6.984;2024-03-07T06:48:42;56759.00;;;-142.13;71.22
11712;BME280;5912;51.034;6.984;2024-03-07T06:51:07;56728.94;;;-142.13;72.21
11712;BME280;5912;51.034;6.984;2024-03-07T06:53:33;56736.94;;;-142.13;71.45
11712;BME280;5912;51.034;6.984;2024-03-07T06:55:58;56728.94;;;-142.13;71.43
11712;BME280;5912;51.034;6.984;2024-03-07T06:58:23;56684.88;;;-142.13;70.78
11712;BME280;5912;51.034;6.984;2024-03-07T07:00:49;56718.91;;;-142.13;70.80
11712;BME280;5912;51.034;6.984;2024-03-07T07:03:18;56738.97;;;-142.13;70.43
11712;BME280;5912;51.034;6.984;2024-03-07T07:05:45;56688.88;;;-142.13;69.97
11712;BME280;5912;51.034;6.984;2024-03-07T07:08:10;56724.94;;;-142.13;70.27
11712;BME280;5912;51.034;6.984;2024-03-07T07:10:38;56704.91;;;-142.13;70.21
11712;BME280;5912;51.034;6.984;2024-03-07T07:13:05;56722.94;;;-142.13;69.35
11712;BME280;5912;51.034;6.984;2024-03-07T07:15:30;56694.88;;;-142.13;68.50
11712;BME280;5912;51.034;6.984;2024-03-07T07:17:56;56710.91;;;-142.13;68.65
11712;BME280;5912;51.034;6.984;2024-03-07T07:20:21;56692.88;;;-142.13;67.99
11712;BME280;5912;51.034;6.984;2024-03-07T07:22:49;56736.94;;;-142.13;67.25
11712;BME280;5912;51.034;6.984;2024-03-07T07:25:15;56702.91;;;-142.13;66.83
11712;BME280;5912;51.034;6.984;2024-03-07T07:27:43;56672.84;;;-142.13;66.57
11712;BME280;5912;51.034;6.984;2024-03-07T07:30:11;56696.88;;;-142.13;65.94
11712;BME280;5912;51.034;6.984;2024-03-07T07:32:36;56674.84;;;-142.13;65.55
11712;BME280;5912;51.034;6.984;2024-03-07T07:35:02;56670.84;;;-142.13;65.06
11712;BME280;5912;51.034;6.984;2024-03-07T07:37:28;56676.84;;;-142.13;65.13
11712;BME280;5912;51.034;6.984;2024-03-07T07:39:53;56696.88;;;-142.13;65.21
11712;BME280;5912;51.034;6.984;2024-03-07T07:42:18;56678.84;;;-142.13;63.88
11712;BME280;5912;51.034;6.984;2024-03-07T07:44:45;56676.84;;;-142.13;63.27
11712;BME280;5912;51.034;6.984;2024-03-07T07:47:10;56668.84;;;-142.13;61.83
11712;BME280;5912;51.034;6.984;2024-03-07T07:49:37;56664.84;;;-142.13;61.38
11712;BME280;5912;51.034;6.984;2024-03-07T07:52:04;56622.75;;;-142.13;59.87
11712;BME280;5912;51.034;6.984;2024-03-07T07:54:30;56636.78;;;-142.13;59.31
11712;BME280;5912;51.034;6.984;2024-03-07T07:56:55;56632.78;;;-142.13;58.90
11712;BME280;5912;51.034;6.984;2024-03-07T07:59:20;56624.75;;;-142.13;57.03
11712;BME280;5912;51.034;6.984;2024-03-07T08:01:46;56616.75;;;-142.13;56.41
11712;BME280;5912;51.034;6.984;2024-03-07T08:04:11;56628.78;;;-142.13;53.87
11712;BME280;5912;51.034;6.984;2024-03-07T08:06:36;56592.72;;;-142.13;54.39
11712;BME280;5912;51.034;6.984;2024-03-07T08:09:02;56614.75;;;-142.13;53.19
11712;BME280;5912;51.034;6.984;2024-03-07T08:11:28;56572.69;;;-142.13;53.27
11712;BME280;5912;51.034;6.984;2024-03-07T08:13:53;56576.69;;;-142.13;50.18
11712;BME280;5912;51.034;6.984;2024-03-07T08:16:19;56592.72;;;-142.13;49.80
11712;BME280;5912;51.034;6.984;2024-03-07T08:18:45;56584.69;;;-142.13;49.17
11712;BME280;5912;51.034;6.984;2024-03-07T08:21:11;56590.72;;;-142.13;47.68
11712;BME280;5912;51.034;6.984;2024-03-07T08:23:37;56572.69;;;-142.13;47.76
11712;BME280;5912;51.034;6.984;2024-03-07T08:26:03;56554.66;;;-142.13;45.83
11712;BME280;5912;51.034;6.984;2024-03-07T08:28:28;56582.69;;;-142.13;45.72
11712;BME280;5912;51.034;6.984;2024-03-07T08:30:53;56568.66;;;-142.13;45.84
11712;BME280;5912;51.034;6.984;2024-03-07T08:33:19;56528.59;;;-142.13;45.52
11712;BME280;5912;51.034;6.984;2024-03-07T08:35:47;56554.66;;;-142.13;43.71
11712;BME280;5912;51.034;6.984;2024-03-07T08:38:12;56546.63;;;-142.13;44.08
11712;BME280;5912;51.034;6.984;2024-03-07T08:40:38;56534.63;;;-142.13;41.94
11712;BME280;5912;51.034;6.984;2024-03-07T08:43:03;56502.56;;;-142.13;42.25
11712;BME280;5912;51.034;6.984;2024-03-07T08:45:30;56524.59;;;-142.13;41.87
11712;BME280;5912;51.034;6.984;2024-03-07T08:47:58;56530.59;;;-142.13;41.28
11712;BME280;5912;51.034;6.984;2024-03-07T08:50:23;56542.63;;;-142.13;41.44
11712;BME280;5912;51.034;6.984;2024-03-07T08:52:50;56504.56;;;-142.13;41.25
11712;BME280;5912;51.034;6.984;2024-03-07T08:55:19;56512.59;;;-142.13;40.96
11712;BME280;5912;51.034;6.984;2024-03-07T08:57:45;56486.53;;;-142.13;39.03
11712;BME280;5912;51.034;6.984;2024-03-07T09:00:15;56494.56;;;-142.13;38.42
11712;BME280;5912;51.034;6.984;2024-03-07T09:02:50;56504.56;;;-142.13;39.17
11712;BME280;5912;51.034;6.984;2024-03-07T09:05:20;56500.56;;;-142.13;38.63
11712;BME280;5912;51.034;6.984;2024-03-07T09:07:47;56456.50;;;-142.13;38.74
11712;BME280;5912;51.034;6.984;2024-03-07T09:10:13;56456.50;;;-142.13;39.00
11712;BME280;5912;51.034;6.984;2024-03-07T09:12:46;56488.53;;;-142.13;37.95
11712;BME280;5912;51.034;6.984;2024-03-07T09:15:13;56496.56;;;-142.13;38.32
11712;BME280;5912;51.034;6.984;2024-03-07T09:17:41;56480.53;;;-142.13;38.40
11712;BME280;5912;51.034;6.984;2024-03-07T09:20:07;56460.50;;;-142.13;38.33
11712;BME280;5912;51.034;6.984;2024-03-07T09:22:43;56456.50;;;-142.13;39.75
11712;BME280;5912;51.034;6.984;2024-03-07T09:25:08;56490.53;;;-142.13;38.23
11712;BME280;5912;51.034;6.984;2024-03-07T09:27:35;56490.53;;;-142.13;37.74
11712;BME280;5912;51.034;6.984;2024-03-07T09:30:00;56444.47;;;-142.13;37.95
11712;BME280;5912;51.034;6.984;2024-03-07T09:32:26;56466.50;;;-142.13;38.01
11712;BME280;5912;51.034;6.984;2024-03-07T09:34:53;56464.50;;;-142.13;38.06
11712;BME280;5912;51.034;6.984;2024-03-07T09:37:18;56488.53;;;-142.13;38.52
11712;BME280;5912;51.034;6.984;2024-03-07T09:39:46;56484.53;;;-142.13;38.84
11712;BME280;5912;51.034;6.984;2024-03-07T09:42:17;56500.56;;;-142.13;39.64
11712;BME280;5912;51.034;6.984;2024-03-07T09:44:43;56512.59;;;-142.13;39.85
11712;BME280;5912;51.034;6.984;2024-03-07T09:47:12;56508.56;;;-142.13;39.92
11712;BME280;5912;51.034;6.984;2024-03-07T09:49:39;56538.63;;;-142.13;40.69
11712;BME280;5912;51.034;6.984;2024-03-07T09:52:07;56520.59;;;-142.13;41.17
11712;BME280;5912;51.034;6.984;2024-03-07T09:54:39;56550.63;;;-142.13;40.83
11712;BME280;5912;51.034;6.984;2024-03-07T09:57:06;56536.63;;;-142.13;41.18
11712;BME280;5912;51.034;6.984;2024-03-07T09:59:35;56540.63;;;-142.13;41.85
11712;BME280;5912;51.034;6.984;2024-03-07T10:02:06;56536.63;;;-142.13;42.04
11712;BME280;5912;51.034;6.984;2024-03-07T10:04:48;56520.59;;;-142.13;41.88
11712;BME280;5912;51.034;6.984;2024-03-07T10:07:15;56516.59;;;-142.13;41.87
11712;BME280;5912;51.034;6.984;2024-03-07T10:09:41;56496.56;;;-142.13;40.85
11712;BME280;5912;51.034;6.984;2024-03-07T10:12:07;56532.63;;;-142.13;40.90
11712;BME280;5912;51.034;6.984;2024-03-07T10:14:38;56534.63;;;-142.13;40.91
11712;BME280;5912;51.034;6.984;2024-03-07T10:17:04;56516.59;;;-142.13;40.61
11712;BME280;5912;51.034;6.984;2024-03-07T10:19:30;56512.59;;;-142.13;40.11
11712;BME280;5912;51.034;6.984;2024-03-07T10:22:14;56506.56;;;-142.13;40.19
11712;BME280;5912;51.034;6.984;2024-03-07T10:24:49;56500.56;;;-142.13;40.28
11712;BME280;5912;51.034;6.984;2024-03-07T10:27:17;56492.53;;;-142.13;39.92
11712;BME280;5912;51.034;6.984;2024-03-07T10:29:43;56496.56;;;-142.13;39.63
11712;BME280;5912;51.034;6.984;2024-03-07T10:32:12;56486.53;;;-142.13;39.33
11712;BME280;5912;51.034;6.984;2024-03-07T10:34:38;56478.53;;;-142.13;38.67
11712;BME280;5912;51.034;6.984;2024-03-07T10:37:04;56452.47;;;-142.13;38.18
11712;BME280;5912;51.034;6.984;2024-03-07T10:39:30;56468.50;;;-142.13;37.21
11712;BME280;5912;51.034;6.984;2024-03-07T10:42:00;56460.50;;;-142.13;36.31
11712;BME280;5912;51.034;6.984;2024-03-07T10:44:30;56432.44;;;-142.13;36.22
11712;BME280;5912;51.034;6.984;2024-03-07T10:46:58;56440.47;;;-142.13;36.36
11712;BME280;5912;51.034;6.984;2024-03-07T10:49:31;56470.50;;;-142.13;37.31
11712;BME280;5912;51.034;6.984;2024-03-07T10:52:03;56512.59;;;-142.13;38.35
11712;BME280;5912;51.034;6.984;2024-03-07T10:54:40;56510.56;;;-142.13;38.32
11712;BME280;5912;51.034;6.984;2024-03-07T10:57:25;56494.56;;;-142.13;38.93
11712;BME280;5912;51.034;6.984;2024-03-07T11:00:02;56500.56;;;-142.13;39.15
11712;BME280;5912;51.034;6.984;2024-03-07T11:02:47;56500.56;;;-142.13;39.43
11712;BME280;5912;51.034;6.984;2024-03-07T11:05:16;56450.47;;;-142.13;38.65
11712;BME280;5912;51.034;6.984;2024-03-07T11:07:42;56468.50;;;-142.13;38.61
11712;BME280;5912;51.034;6.984;2024-03-07T11:10:10;56504.56;;;-142.13;38.78
11712;BME280;5912;51.034;6.984;2024-03-07T11:12:38;56472.50;;;-142.13;39.22
11712;BME280;5912;51.034;6.984;2024-03-07T11:15:07;56508.56;;;-142.13;39.55
11712;BME280;5912;51.034;6.984;2024-03-07T11:17:42;56504.56;;;-142.13;39.25
11712;BME280;5912;51.034;6.984;2024-03-07T11:20:25;56510.56;;;-142.13;38.50
11712;BME280;5912;51.034;6.984;2024-03-07T11:22:51;56490.53;;;-142.13;39.29
11712;BME280;5912;51.034;6.984;2024-03-07T11:25:19;56468.50;;;-142.13;39.41
11712;BME280;5912;51.034;6.984;2024-03-07T11:28:00;56492.53;;;-142.13;39.05
11712;BME280;5912;51.034;6.984;2024-03-07T11:30:26;56486.53;;;-142.13;39.20
11712;BME280;5912;51.034;6.984;2024-03-07T11:32:53;56486.53;;;-142.13;38.85
11712;BME280;5912;51.034;6.984;2024-03-07T11:35:40;56484.53;;;-142.13;38.87
11712;BME280;5912;51.034;6.984;2024-03-07T11:38:11;56444.47;;;-142.13;38.30
11712;BME280;5912;51.034;6.984;2024-03-07T11:40:59;56422.44;;;-142.13;37.13
11712;BME280;5912;51.034;6.984;2024-03-07T11:43:27;56386.38;;;-142.13;35.75
11712;BME280;5912;51.034;6.984;2024-03-07T11:45:53;56360.34;;;-142.13;33.90
11712;BME280;5912;51.034;6.984;2024-03-07T11:48:18;56352.31;;;-142.13;33.67
11712;BME280;5912;51.034;6.984;2024-03-07T11:50:46;56354.31;;;-142.13;34.56
11712;BME280;5912;51.034;6.984;2024-03-07T11:53:11;56388.38;;;-142.13;34.82
11712;BME280;5912;51.034;6.984;2024-03-07T11:55:38;56416.44;;;-142.13;35.76
11712;BME280;5912;51.034;6.984;2024-03-07T11:58:14;56434.44;;;-142.13;36.42
11712;BME280;5912;51.034;6.984;2024-03-07T12:00:45;56432.44;;;-142.13;37.08
11712;BME280;5912;51.034;6.984;2024-03-07T12:03:15;56426.44;;;-142.13;37.27
11712;BME280;5912;51.034;6.984;2024-03-07T12:05:46;56440.47;;;-142.13;37.89
11712;BME280;5912;51.034;6.984;2024-03-07T12:08:12;56442.47;;;-142.13;38.20
11712;BME280;5912;51.034;6.984;2024-03-07T12:10:39;56448.47;;;-142.13;38.21
11712;BME280;5912;51.034;6.984;2024-03-07T12:13:09;56422.44;;;-142.13;36.83
11712;BME280;5912;51.034;6.984;2024-03-07T12:15:37;56388.38;;;-142.13;35.58
11712;BME280;5912;51.034;6.984;2024-03-07T12:18:04;56382.38;;;-142.13;35.18
11712;BME280;5912;51.034;6.984;2024-03-07T12:20:35;56370.34;;;-142.13;35.54
11712;BME280;5912;51.034;6.984;2024-03-07T12:26:12;56376.34;;;-142.13;35.01
11712;BME280;5912;51.034;6.984;2024-03-07T12:28:43;56394.38;;;-142.13;35.11
11712;BME280;5912;51.034;6.984;2024-03-07T12:31:09;56414.41;;;-142.13;35.91
11712;BME280;5912;51.034;6.984;2024-03-07T12:33:41;56424.44;;;-142.13;36.44
11712;BME280;5912;51.034;6.984;2024-03-07T12:36:12;56428.44;;;-142.13;36.58
11712;BME280;5912;51.034;6.984;2024-03-07T12:38:38;56460.50;;;-142.13;37.34
11712;BME280;5912;51.034;6.984;2024-03-07T12:41:10;56520.59;;;-142.13;38.01
11712;BME280;5912;51.034;6.984;2024-03-07T12:43:40;56482.53;;;-142.13;37.82
11712;BME280;5912;51.034;6.984;2024-03-07T12:46:07;56456.50;;;-142.13;38.29
11712;BME280;5912;51.034;6.984;2024-03-07T12:48:37;56492.53;;;-142.13;37.95
11712;BME280;5912;51.034;6.984;2024-03-07T12:51:04;56478.53;;;-142.13;37.35
11712;BME280;5912;51.034;6.984;2024-03-07T12:53:29;56506.56;;;-142.13;37.55
11712;BME280;5912;51.034;6.984;2024-03-07T12:55:57;56472.50;;;-142.13;37.21
11712;BME280;5912;51.034;6.984;2024-03-07T12:58:22;56464.50;;;-142.13;37.70
11712;BME280;5912;51.034;6.984;2024-03-07T13:00:51;56440.47;;;-142.13;37.09